createdAt,value
2023-05-16T11:00:20.597Z,641.25
2023-05-16T11:01:20.434Z,641.25
2023-05-16T11:02:20.433Z,663.75
2023-05-16T11:03:20.462Z,686.25
2023-05-16T11:04:20.375Z,680.63
2023-05-16T11:05:20.364Z,686.25
2023-05-16T11:08:39.102Z,725.63
2023-05-16T11:09:39.063Z,776.25
2023-05-16T11:10:39.063Z,753.75
2023-05-16T11:11:39.075Z,736.88
2023-05-16T11:15:11.156Z,871.88
2023-05-16T11:16:11.174Z,967.50
2023-05-16T11:17:11.226Z,967.50
2023-05-16T11:18:11.212Z,905.63
2023-05-16T11:19:11.110Z,900.00
2023-05-16T11:20:11.067Z,877.50
2023-05-16T11:21:11.069Z,900.00
2023-05-16T11:22:11.071Z,877.50
2023-05-16T11:23:11.014Z,787.50
2023-05-16T11:24:11.010Z,725.63
2023-05-16T11:25:11.061Z,680.63
2023-05-16T11:30:29.939Z,540.00
2023-05-16T11:31:30.018Z,613.13
2023-05-16T11:32:29.958Z,601.88
2023-05-16T11:33:29.936Z,714.38
2023-05-16T11:34:29.878Z,798.75
2023-05-16T11:35:30.127Z,838.13
2023-05-16T11:36:29.844Z,843.75
2023-05-16T11:37:29.835Z,787.50
2023-05-16T11:38:29.797Z,826.88
2023-05-16T11:39:29.802Z,798.75
2023-05-16T11:40:29.764Z,731.25
2023-05-16T11:41:29.760Z,703.13
2023-05-16T11:42:29.761Z,720.00
2023-05-16T11:50:00.619Z,742.50
2023-05-16T11:51:00.569Z,866.25
2023-05-16T11:52:00.589Z,990.00
2023-05-16T11:53:00.561Z,1035.00
2023-05-16T11:54:00.539Z,945.00
2023-05-16T11:55:00.524Z,911.25
2023-05-16T11:56:00.496Z,888.75
2023-05-16T11:57:00.466Z,877.50
2023-05-16T11:58:00.493Z,860.63
2023-05-16T11:59:00.454Z,843.75
2023-05-16T12:00:00.427Z,838.13
2023-05-16T12:01:00.412Z,759.38
2023-05-16T12:02:00.399Z,691.88
2023-05-16T12:03:00.470Z,703.13
2023-05-16T12:04:00.535Z,613.13
2023-05-16T12:05:00.417Z,658.13
2023-05-16T12:06:00.461Z,793.13
2023-05-16T12:07:00.329Z,888.75
2023-05-16T12:08:00.337Z,922.50
2023-05-16T12:09:00.291Z,1051.88
2023-05-16T12:10:00.282Z,1108.13
2023-05-16T12:11:00.254Z,1108.13
2023-05-16T12:12:00.247Z,1035.00
2023-05-16T12:13:00.264Z,916.88
2023-05-16T12:14:00.241Z,838.13
2023-05-16T12:15:00.223Z,781.88
2023-05-16T12:23:11.166Z,821.25
2023-05-16T12:24:11.046Z,770.63
2023-05-16T12:25:11.042Z,708.75
2023-05-16T12:33:05.975Z,855.00
2023-05-16T12:34:03.548Z,860.63
2023-05-16T12:35:03.529Z,815.63
2023-05-16T12:36:03.532Z,798.75
2023-05-16T12:37:03.513Z,708.75
2023-05-16T12:38:03.505Z,613.13
2023-05-16T12:39:03.617Z,528.75
2023-05-16T12:40:03.440Z,500.63
2023-05-16T12:41:03.461Z,478.13
2023-05-16T12:42:03.410Z,472.50
2023-05-16T12:43:03.418Z,472.50
2023-05-16T12:44:03.398Z,472.50
2023-05-16T12:45:03.401Z,472.50
2023-05-16T12:46:03.397Z,478.13
2023-05-16T12:47:03.359Z,489.38
2023-05-16T12:48:03.360Z,511.88
2023-05-16T12:49:03.328Z,523.13
2023-05-16T12:50:03.288Z,562.50
2023-05-16T12:51:03.283Z,506.25
2023-05-16T12:52:03.276Z,551.25
2023-05-16T12:53:03.263Z,551.25
2023-05-16T12:54:10.166Z,562.50
2023-05-16T12:55:03.227Z,579.38
2023-05-16T12:56:03.218Z,607.50
2023-05-16T12:57:03.212Z,630.00
2023-05-16T12:58:03.228Z,663.75
2023-05-16T12:59:03.170Z,720.00
2023-05-16T13:00:03.173Z,804.38
2023-05-16T13:01:03.171Z,900.00
2023-05-16T13:02:03.236Z,1051.88
2023-05-16T13:03:03.233Z,1366.88
2023-05-16T13:04:03.276Z,2311.88
2023-05-16T13:05:03.090Z,1946.25
2023-05-16T13:06:03.058Z,2773.13
2023-05-16T13:07:03.073Z,3510.00
2023-05-16T13:08:03.078Z,1350.00
2023-05-16T13:09:03.052Z,3290.63
2023-05-16T13:10:03.030Z,3335.63
2023-05-16T13:11:03.169Z,3324.38
2023-05-16T13:12:03.004Z,3341.25
2023-05-16T13:13:02.993Z,635.63
2023-05-16T13:13:57.173Z,3268.13
2023-05-16T13:14:57.865Z,3465.00
2023-05-16T13:15:57.208Z,3481.88
2023-05-16T13:16:57.152Z,3532.50
2023-05-16T13:19:48.915Z,2435.63
2023-05-16T13:33:51.376Z,990.00
2023-05-16T13:34:51.336Z,832.50
2023-05-16T13:37:55.520Z,939.38
2023-05-16T13:38:55.505Z,2981.25
2023-05-16T13:39:55.512Z,1625.63
2023-05-16T13:40:55.462Z,1153.13
2023-05-16T13:41:55.457Z,1203.75
2023-05-16T13:42:55.448Z,2671.88
2023-05-16T13:43:55.437Z,2570.63
2023-05-16T13:44:55.417Z,1063.13
2023-05-16T13:45:55.472Z,1321.88
2023-05-16T13:46:55.381Z,2486.25
2023-05-16T13:47:55.392Z,2424.38
2023-05-16T13:48:55.511Z,2340.00
2023-05-16T13:49:55.346Z,2233.13
2023-05-16T13:50:55.316Z,1068.75
2023-05-16T13:51:55.310Z,2418.75
2023-05-16T13:52:55.310Z,2300.63
2023-05-16T13:53:55.300Z,2176.88
2023-05-16T13:54:55.281Z,2272.50
2023-05-16T13:55:55.279Z,2250.00
2023-05-16T13:56:55.254Z,2064.38
2023-05-16T13:57:55.250Z,2272.50
2023-05-16T13:59:03.771Z,2396.25
2023-05-16T14:00:55.224Z,2919.38
2023-05-16T14:01:55.276Z,2593.13
2023-05-16T14:02:55.182Z,1608.75
2023-05-16T14:03:55.232Z,3121.88
2023-05-16T14:04:55.240Z,2441.25
2023-05-16T14:05:55.136Z,3268.13
2023-05-16T14:06:55.128Z,3414.38
2023-05-16T14:07:55.104Z,3262.50
2023-05-16T14:08:55.101Z,3043.13
2023-05-16T14:09:55.108Z,2975.63
2023-05-16T14:10:55.088Z,3082.50
2023-05-16T14:11:55.085Z,3076.88
2023-05-16T14:12:55.064Z,2964.38
2023-05-16T14:13:55.068Z,2953.13
2023-05-16T14:14:55.037Z,2874.38
2023-05-16T14:15:55.049Z,2908.13
2023-05-16T14:16:55.104Z,3054.38
2023-05-16T14:17:55.073Z,3031.88
2023-05-16T14:18:55.030Z,2896.88
2023-05-16T14:19:54.980Z,2823.75
2023-05-16T14:20:55.116Z,2975.63
2023-05-16T14:21:54.968Z,3071.25
2023-05-16T14:22:54.951Z,3105.00
2023-05-16T14:23:54.946Z,3223.13
2023-05-16T14:26:05.705Z,3076.88
2023-05-16T14:27:04.712Z,3031.88
2023-05-16T14:28:04.036Z,2992.50
2023-05-16T14:30:18.548Z,3178.13
2023-05-16T14:31:18.551Z,3161.25
2023-05-16T14:32:18.584Z,3133.13
2023-05-16T14:33:18.552Z,2261.25
2023-05-16T14:34:18.520Z,2323.13
2023-05-16T14:35:18.474Z,3155.63
2023-05-16T14:36:18.564Z,3088.13
2023-05-16T14:37:18.474Z,3245.63
2023-05-16T14:38:18.454Z,1985.63
2023-05-16T14:40:23.879Z,3301.88
2023-05-16T14:41:23.849Z,3369.38
2023-05-16T14:42:23.834Z,3493.13
2023-05-16T14:43:23.835Z,2368.13
2023-05-16T14:44:23.822Z,911.25
2023-05-16T14:45:24.533Z,2205.00
2023-05-16T14:46:23.856Z,742.50
2023-05-16T14:47:23.807Z,686.25
2023-05-16T14:54:06.523Z,748.13
2023-05-16T14:55:06.332Z,866.25
2023-05-16T14:58:36.498Z,2885.63
2023-05-16T14:59:36.469Z,2857.50
2023-05-16T15:00:36.478Z,2902.50
2023-05-16T15:03:55.256Z,2694.38
2023-05-16T15:05:23.171Z,1395.00
2023-05-16T15:07:32.996Z,2553.75
2023-05-16T15:08:34.304Z,2458.13
2023-05-16T15:10:52.324Z,2480.63
2023-05-16T15:11:52.229Z,2193.75
2023-05-16T15:12:52.228Z,2694.38
2023-05-16T15:13:52.223Z,2880.00
2023-05-16T15:14:52.200Z,3088.13
2023-05-16T15:15:52.944Z,3054.38
2023-05-16T15:16:52.194Z,3003.75
2023-05-16T15:17:52.219Z,3150.00
2023-05-16T15:18:52.184Z,3200.63
2023-05-16T15:19:52.136Z,3195.00
2023-05-16T15:20:52.139Z,3110.63
2023-05-16T15:21:52.108Z,2986.88
2023-05-16T15:22:52.098Z,3015.00
2023-05-16T15:23:52.101Z,2953.13
2023-05-16T15:24:52.092Z,2975.63
2023-05-16T15:25:52.069Z,2964.38
2023-05-16T15:27:33.075Z,2655.00
2023-05-16T15:28:33.005Z,2778.75
2023-05-16T15:29:32.993Z,978.75
2023-05-16T15:30:32.978Z,776.25
2023-05-16T16:41:46.573Z,1023.75
